createdAt,value
2018-07-28T00:00:51.691Z,0.00
2018-07-28T00:01:51.736Z,0.00
2018-07-28T00:02:51.677Z,0.00
2018-07-28T00:03:51.669Z,0.00
2018-07-28T00:04:51.666Z,0.00
2018-07-28T00:05:51.707Z,0.00
2018-07-28T00:06:51.646Z,0.00
2018-07-28T00:07:51.646Z,0.00
2018-07-28T00:08:51.657Z,0.00
2018-07-28T00:09:51.625Z,0.00
2018-07-28T00:10:51.624Z,0.00
2018-07-28T00:11:51.616Z,0.00
2018-07-28T00:12:51.606Z,0.00
2018-07-28T00:13:51.601Z,0.00
2018-07-28T00:14:51.595Z,0.00
2018-07-28T00:15:51.588Z,0.00
2018-07-28T00:16:51.578Z,0.00
2018-07-28T00:17:51.571Z,0.00
2018-07-28T00:18:51.569Z,0.00
2018-07-28T00:19:51.561Z,0.00
2018-07-28T00:20:51.549Z,0.00
2018-07-28T00:21:51.547Z,0.00
2018-07-28T00:22:51.539Z,0.00
2018-07-28T00:23:51.527Z,0.00
2018-07-28T00:24:51.522Z,0.00
2018-07-28T00:25:51.511Z,0.00
2018-07-28T00:26:51.507Z,0.00
2018-07-28T00:27:51.495Z,0.00
2018-07-28T00:28:51.505Z,0.00
2018-07-28T00:29:51.485Z,0.00
2018-07-28T00:30:51.478Z,0.00
2018-07-28T00:31:51.469Z,0.00
2018-07-28T00:32:51.478Z,0.00
2018-07-28T00:33:51.456Z,0.00
2018-07-28T00:34:51.450Z,0.00
2018-07-28T00:35:51.437Z,0.00
2018-07-28T00:36:51.463Z,0.00
2018-07-28T00:37:51.426Z,0.00
2018-07-28T00:38:51.470Z,0.00
2018-07-28T00:39:51.412Z,0.00
2018-07-28T00:40:51.457Z,0.00
2018-07-28T00:41:51.400Z,0.00
2018-07-28T00:42:51.436Z,0.00
2018-07-28T00:43:51.375Z,0.00
2018-07-28T00:44:51.377Z,0.00
2018-07-28T00:45:51.369Z,0.00
2018-07-28T00:46:51.356Z,0.00
2018-07-28T00:47:51.361Z,0.00
2018-07-28T00:48:51.348Z,0.00
2018-07-28T00:49:51.337Z,0.00
2018-07-28T00:50:51.342Z,0.00
2018-07-28T00:51:51.323Z,0.00
2018-07-28T00:52:51.315Z,0.00
2018-07-28T00:53:51.319Z,0.00
2018-07-28T00:54:51.297Z,0.00
2018-07-28T00:55:51.289Z,0.00
2018-07-28T00:56:51.286Z,0.00
2018-07-28T00:57:51.280Z,0.00
2018-07-28T00:58:51.264Z,0.00
2018-07-28T00:59:51.258Z,0.00
2018-07-28T01:00:51.254Z,0.00
2018-07-28T01:01:51.247Z,0.00
2018-07-28T01:02:51.238Z,0.00
2018-07-28T01:03:51.238Z,0.00
2018-07-28T01:04:51.219Z,0.00
2018-07-28T01:05:51.220Z,0.00
2018-07-28T01:06:51.203Z,0.00
2018-07-28T01:07:51.204Z,0.00
2018-07-28T01:08:51.191Z,0.00
2018-07-28T01:09:51.197Z,0.00
2018-07-28T01:10:51.174Z,0.00
2018-07-28T01:11:51.167Z,0.00
2018-07-28T01:12:51.165Z,0.00
2018-07-28T01:13:51.150Z,0.00
2018-07-28T01:14:51.147Z,0.00
2018-07-28T01:15:51.137Z,0.00
2018-07-28T01:16:51.125Z,0.00
2018-07-28T01:17:51.143Z,0.00
2018-07-28T01:18:51.115Z,0.00
2018-07-28T01:19:51.112Z,0.00
2018-07-28T01:20:51.098Z,0.00
2018-07-28T01:21:51.089Z,0.00
2018-07-28T01:22:51.082Z,0.00
2018-07-28T01:23:51.078Z,0.00
2018-07-28T01:24:51.067Z,0.00
2018-07-28T01:25:51.056Z,0.00
2018-07-28T01:26:51.053Z,0.00
2018-07-28T01:27:51.048Z,0.00
2018-07-28T01:28:51.040Z,0.00
2018-07-28T01:29:51.027Z,0.00
2018-07-28T01:30:51.022Z,0.00
2018-07-28T01:31:51.019Z,0.00
2018-07-28T01:32:51.007Z,0.00
2018-07-28T01:33:50.997Z,0.00
2018-07-28T01:34:50.988Z,0.00
2018-07-28T01:35:50.980Z,0.00
2018-07-28T01:36:50.975Z,0.00
2018-07-28T01:37:51.006Z,0.00
2018-07-28T01:38:50.957Z,0.00
2018-07-28T01:39:50.957Z,0.00
2018-07-28T01:40:50.946Z,0.00
2018-07-28T01:41:50.938Z,0.00
2018-07-28T01:42:50.932Z,0.00
2018-07-28T01:43:50.918Z,0.00
2018-07-28T01:44:50.911Z,0.00
2018-07-28T01:45:50.905Z,0.00
2018-07-28T01:46:50.899Z,0.00
2018-07-28T01:47:50.887Z,0.00
2018-07-28T01:48:50.881Z,0.00
2018-07-28T01:49:50.874Z,0.00
2018-07-28T01:50:50.869Z,0.00
2018-07-28T01:51:50.860Z,0.00
2018-07-28T01:52:50.847Z,0.00
2018-07-28T01:53:50.840Z,0.00
2018-07-28T01:54:50.839Z,0.00
2018-07-28T01:55:50.827Z,0.00
2018-07-28T01:56:50.817Z,0.00
2018-07-28T01:57:50.807Z,0.00
2018-07-28T01:58:50.809Z,0.00
2018-07-28T01:59:50.890Z,0.00
2018-07-28T02:00:50.790Z,0.00
2018-07-28T02:01:50.777Z,0.00
2018-07-28T02:02:50.767Z,0.00
2018-07-28T02:03:50.767Z,0.00
2018-07-28T02:04:50.755Z,0.00
2018-07-28T02:05:50.748Z,0.00
2018-07-28T02:06:50.744Z,0.00
2018-07-28T02:07:50.736Z,0.00
2018-07-28T02:08:50.722Z,0.00
2018-07-28T02:09:50.717Z,0.00
2018-07-28T02:10:50.708Z,0.00
2018-07-28T02:11:50.700Z,0.00
2018-07-28T02:12:50.691Z,0.00
2018-07-28T02:13:50.688Z,0.00
2018-07-28T02:14:50.676Z,0.00
2018-07-28T02:15:50.673Z,0.00
2018-07-28T02:16:50.666Z,0.00
2018-07-28T02:17:50.651Z,0.00
2018-07-28T02:18:50.648Z,0.00
2018-07-28T02:19:50.637Z,0.00
2018-07-28T02:20:50.636Z,0.00
2018-07-28T02:21:50.626Z,0.00
2018-07-28T02:22:50.616Z,0.00
2018-07-28T02:23:50.607Z,0.00
2018-07-28T02:24:50.599Z,0.00
2018-07-28T02:25:50.598Z,0.00
2018-07-28T02:26:50.585Z,0.00
2018-07-28T02:27:50.577Z,0.00
2018-07-28T02:28:50.614Z,0.00
2018-07-28T02:29:50.557Z,0.00
2018-07-28T02:30:50.549Z,0.00
2018-07-28T02:31:50.547Z,0.00
2018-07-28T02:32:50.536Z,0.00
2018-07-28T02:33:50.525Z,0.00
2018-07-28T02:34:50.580Z,0.00
2018-07-28T02:35:50.519Z,0.00
2018-07-28T02:36:50.503Z,0.00
2018-07-28T02:37:50.505Z,0.00
2018-07-28T02:38:50.487Z,0.00
2018-07-28T02:39:50.483Z,0.00
2018-07-28T02:40:50.472Z,0.00
2018-07-28T02:41:50.542Z,0.00
2018-07-28T02:42:50.452Z,0.00
2018-07-28T02:43:50.548Z,0.00
2018-07-28T02:44:50.437Z,0.00
2018-07-28T02:45:50.530Z,0.00
2018-07-28T02:46:50.427Z,0.00
2018-07-28T02:47:50.421Z,0.00
2018-07-28T02:48:50.415Z,0.00
2018-07-28T02:49:50.447Z,0.00
2018-07-28T02:50:50.397Z,0.00
2018-07-28T02:51:50.438Z,0.00
2018-07-28T02:52:50.384Z,0.00
2018-07-28T02:53:50.421Z,0.00
2018-07-28T02:54:50.368Z,0.00
2018-07-28T02:55:50.348Z,0.00
2018-07-28T02:56:50.353Z,0.00
2018-07-28T02:57:50.332Z,0.00
2018-07-28T02:58:50.325Z,0.00
2018-07-28T02:59:50.316Z,0.00
2018-07-28T03:00:50.319Z,0.00
2018-07-28T03:01:50.311Z,0.00
2018-07-28T03:02:50.299Z,0.00
2018-07-28T03:03:50.287Z,0.00
2018-07-28T03:04:50.277Z,0.00
2018-07-28T03:05:50.271Z,0.00
2018-07-28T03:06:50.259Z,0.00
2018-07-28T03:07:50.257Z,0.00
2018-07-28T03:08:50.246Z,0.00
2018-07-28T03:09:50.250Z,4.00
2018-07-28T03:10:50.227Z,0.00
2018-07-28T03:11:50.221Z,0.00
2018-07-28T03:12:50.225Z,4.00
2018-07-28T03:13:50.204Z,4.00
2018-07-28T03:14:50.198Z,0.00
2018-07-28T03:15:50.193Z,4.00
2018-07-28T03:16:50.179Z,4.00
2018-07-28T03:17:50.169Z,4.00
2018-07-28T03:18:50.167Z,8.00
2018-07-28T03:19:50.157Z,4.00
2018-07-28T03:20:50.141Z,4.00
2018-07-28T03:21:50.134Z,8.00
2018-07-28T03:22:50.134Z,8.00
2018-07-28T03:23:50.118Z,8.00
2018-07-28T03:24:50.214Z,12.00
2018-07-28T03:25:50.107Z,12.00
2018-07-28T03:26:50.171Z,16.00
2018-07-28T03:27:50.087Z,16.00
2018-07-28T03:28:50.080Z,16.00
2018-07-28T03:29:50.071Z,20.00
2018-07-28T03:30:50.066Z,20.00
2018-07-28T03:31:50.056Z,28.00
2018-07-28T03:32:50.046Z,28.00
2018-07-28T03:33:50.036Z,32.00
2018-07-28T03:34:50.030Z,36.00
2018-07-28T03:35:50.015Z,40.00
2018-07-28T03:36:50.016Z,44.00
2018-07-28T03:37:50.013Z,48.00
2018-07-28T03:38:49.992Z,56.00
2018-07-28T03:39:49.984Z,56.00
2018-07-28T03:40:49.975Z,64.00
2018-07-28T03:41:49.966Z,72.00
2018-07-28T03:42:49.961Z,76.00
2018-07-28T03:43:49.948Z,84.00
2018-07-28T03:44:49.941Z,88.00
2018-07-28T03:45:49.938Z,96.00
2018-07-28T03:46:49.930Z,104.00
2018-07-28T03:47:49.917Z,108.00
2018-07-28T03:48:49.917Z,116.00
2018-07-28T03:49:49.906Z,124.00
2018-07-28T03:50:49.892Z,132.00
2018-07-28T03:51:49.887Z,136.00
2018-07-28T03:52:49.879Z,148.00
2018-07-28T03:53:49.867Z,152.00
2018-07-28T03:54:49.856Z,164.00
2018-07-28T03:55:49.854Z,172.00
2018-07-28T03:56:49.840Z,176.00
2018-07-28T03:57:49.830Z,188.00
2018-07-28T03:58:49.827Z,192.00
2018-07-28T03:59:49.816Z,204.00
2018-07-28T04:00:49.806Z,212.00
2018-07-28T04:01:49.799Z,220.00
2018-07-28T04:02:49.790Z,228.00
2018-07-28T04:03:49.782Z,236.00
2018-07-28T04:04:49.776Z,248.00
2018-07-28T04:05:49.767Z,252.00
2018-07-28T04:06:49.757Z,264.00
2018-07-28T04:07:49.747Z,272.00
2018-07-28T04:08:49.739Z,280.00
2018-07-28T04:09:49.740Z,284.00
2018-07-28T04:10:49.730Z,296.00
2018-07-28T04:11:49.714Z,304.00
2018-07-28T04:12:49.706Z,312.00
2018-07-28T04:13:49.696Z,324.00
2018-07-28T04:14:49.689Z,332.00
2018-07-28T04:15:49.686Z,340.00
2018-07-28T04:16:49.674Z,348.00
2018-07-28T04:17:49.669Z,356.00
2018-07-28T04:18:49.656Z,364.00
2018-07-28T04:19:49.656Z,372.00
2018-07-28T04:20:49.635Z,380.00
2018-07-28T04:21:49.627Z,388.00
2018-07-28T04:22:49.627Z,400.00
2018-07-28T04:23:49.609Z,404.00
2018-07-28T04:24:49.616Z,416.00
2018-07-28T04:25:49.596Z,424.00
2018-07-28T04:26:49.584Z,440.00
2018-07-28T04:27:49.585Z,448.00
2018-07-28T04:28:49.576Z,456.00
2018-07-28T04:29:49.566Z,452.00
2018-07-28T04:30:49.555Z,436.00
2018-07-28T04:31:49.541Z,436.00
2018-07-28T04:32:49.535Z,440.00
2018-07-28T04:33:49.524Z,452.00
2018-07-28T04:34:49.516Z,472.00
2018-07-28T04:35:49.516Z,492.00
2018-07-28T04:36:49.509Z,504.00
2018-07-28T04:37:49.492Z,508.00
2018-07-28T04:38:49.503Z,512.00
2018-07-28T04:39:49.485Z,516.00
2018-07-28T04:40:49.466Z,520.00
2018-07-28T04:41:49.460Z,524.00
2018-07-28T04:42:49.456Z,536.00
2018-07-28T04:43:49.449Z,540.00
2018-07-28T04:44:49.436Z,532.00
2018-07-28T04:45:49.428Z,520.00
2018-07-28T04:46:49.417Z,516.00
2018-07-28T04:47:49.404Z,520.00
2018-07-28T04:48:49.398Z,532.00
2018-07-28T04:49:49.386Z,544.00
2018-07-28T04:50:49.377Z,560.00
2018-07-28T04:51:49.375Z,568.00
2018-07-28T04:52:49.367Z,584.00
2018-07-28T04:53:49.362Z,608.00
2018-07-28T04:54:49.448Z,644.00
2018-07-28T04:55:49.339Z,680.00
2018-07-28T04:56:49.330Z,680.00
2018-07-28T04:57:49.326Z,668.00
2018-07-28T04:58:49.376Z,644.00
2018-07-28T04:59:49.305Z,628.00
2018-07-28T05:00:49.441Z,636.00
2018-07-28T05:01:49.278Z,652.00
2018-07-28T05:02:49.331Z,636.00
2018-07-28T05:03:49.265Z,608.00
2018-07-28T05:04:49.256Z,600.00
2018-07-28T05:05:49.246Z,604.00
2018-07-28T05:06:49.288Z,604.00
2018-07-28T05:07:49.237Z,600.00
2018-07-28T05:08:49.222Z,604.00
2018-07-28T05:09:49.212Z,616.00
2018-07-28T05:10:49.201Z,636.00
2018-07-28T05:11:49.195Z,660.00
2018-07-28T05:12:49.187Z,676.00
2018-07-28T05:13:49.174Z,668.00
2018-07-28T05:14:49.166Z,648.00
2018-07-28T05:15:49.196Z,644.00
2018-07-28T05:16:49.147Z,648.00
2018-07-28T05:17:49.139Z,656.00
2018-07-28T05:18:49.136Z,672.00
2018-07-28T05:19:49.133Z,696.00
2018-07-28T05:20:49.116Z,708.00
2018-07-28T05:21:49.110Z,724.00
2018-07-28T05:22:49.096Z,736.00
2018-07-28T05:23:49.125Z,748.00
2018-07-28T05:24:49.083Z,776.00
2018-07-28T05:25:49.078Z,808.00
2018-07-28T05:26:49.064Z,840.00
2018-07-28T05:27:49.061Z,892.00
2018-07-28T05:28:49.045Z,960.00
2018-07-28T05:29:49.037Z,1012.00
2018-07-28T05:30:49.028Z,1052.00
2018-07-28T05:31:49.024Z,1112.00
2018-07-28T05:32:49.004Z,1136.00
2018-07-28T05:33:48.997Z,1188.00
2018-07-28T05:34:49.009Z,1220.00
2018-07-28T05:35:48.984Z,1252.00
2018-07-28T05:36:48.973Z,1316.00
2018-07-28T05:37:48.976Z,1388.00
2018-07-28T05:38:48.963Z,1452.00
2018-07-28T05:39:48.945Z,1532.00
2018-07-28T05:40:48.940Z,1608.00
2018-07-28T05:41:49.012Z,1696.00
2018-07-28T05:42:48.932Z,1824.00
2018-07-28T05:43:49.026Z,1984.00
2018-07-28T05:44:48.905Z,2140.00
2018-07-28T05:45:48.970Z,2288.00
2018-07-28T05:46:48.883Z,2408.00
2018-07-28T05:47:48.975Z,2484.00
2018-07-28T05:48:48.873Z,2520.00
2018-07-28T05:49:48.854Z,2612.00
2018-07-28T05:50:48.846Z,2792.00
2018-07-28T05:51:48.850Z,3040.00
2018-07-28T05:52:48.831Z,3180.00
2018-07-28T05:53:48.821Z,3276.00
2018-07-28T05:54:48.808Z,3356.00
2018-07-28T05:55:48.809Z,3428.00
2018-07-28T05:56:48.793Z,3492.00
2018-07-28T05:57:48.841Z,3544.00
2018-07-28T05:58:48.775Z,3588.00
2018-07-28T05:59:48.776Z,3632.00
2018-07-28T06:00:48.758Z,3668.00
2018-07-28T06:01:48.754Z,3704.00
2018-07-28T06:02:48.878Z,3744.00
2018-07-28T06:03:48.735Z,3780.00
2018-07-28T06:04:48.729Z,3816.00
2018-07-28T06:05:48.715Z,3864.00
2018-07-28T06:06:48.710Z,3920.00
2018-07-28T06:07:48.704Z,3972.00
2018-07-28T06:08:48.694Z,4000.00
2018-07-28T06:09:48.688Z,4020.00
2018-07-28T06:10:48.728Z,4032.00
2018-07-28T06:11:48.665Z,4044.00
2018-07-28T06:12:48.668Z,4056.00
2018-07-28T06:13:48.657Z,4084.00
2018-07-28T06:14:48.639Z,4128.00
2018-07-28T06:15:48.636Z,4180.00
2018-07-28T06:16:48.625Z,4236.00
2018-07-28T06:17:48.616Z,4288.00
2018-07-28T06:18:48.606Z,4336.00
2018-07-28T06:19:48.606Z,4372.00
2018-07-28T06:20:48.605Z,4396.00
2018-07-28T06:21:48.585Z,4412.00
2018-07-28T06:22:48.572Z,4436.00
2018-07-28T06:23:48.566Z,4472.00
2018-07-28T06:24:48.557Z,4520.00
2018-07-28T06:25:48.547Z,4584.00
2018-07-28T06:26:48.554Z,4648.00
2018-07-28T06:27:48.559Z,4712.00
2018-07-28T06:28:48.527Z,4752.00
2018-07-28T06:29:48.513Z,4796.00
2018-07-28T06:30:48.514Z,4820.00
2018-07-28T06:31:48.632Z,4844.00
2018-07-28T06:32:48.506Z,4868.00
2018-07-28T06:33:48.488Z,4892.00
2018-07-28T06:34:48.480Z,4904.00
2018-07-28T06:35:48.466Z,4920.00
2018-07-28T06:36:48.456Z,4948.00
2018-07-28T06:37:48.452Z,4972.00
2018-07-28T06:38:48.438Z,4992.00
2018-07-28T06:39:48.436Z,5020.00
2018-07-28T06:40:48.423Z,5068.00
2018-07-28T06:41:48.412Z,5116.00
2018-07-28T06:42:48.403Z,5176.00
2018-07-28T06:43:48.439Z,5240.00
2018-07-28T06:44:48.390Z,5296.00
2018-07-28T06:45:48.397Z,5336.00
2018-07-28T06:46:48.370Z,5360.00
2018-07-28T06:47:48.365Z,5384.00
2018-07-28T06:48:48.362Z,5420.00
2018-07-28T06:49:48.347Z,5444.00
2018-07-28T06:50:48.346Z,5476.00
2018-07-28T06:51:48.335Z,5524.00
2018-07-28T06:52:48.326Z,5568.00
2018-07-28T06:53:48.382Z,5632.00
2018-07-28T06:54:48.315Z,5700.00
2018-07-28T06:55:48.305Z,5768.00
2018-07-28T06:56:48.298Z,5832.00
2018-07-28T06:57:48.284Z,5904.00
2018-07-28T06:58:48.293Z,5988.00
2018-07-28T06:59:48.269Z,6076.00
2018-07-28T07:00:48.269Z,6204.00
2018-07-28T07:01:48.254Z,6348.00
2018-07-28T07:02:48.248Z,6512.00
2018-07-28T07:03:48.239Z,6696.00
2018-07-28T07:04:48.293Z,6920.00
2018-07-28T07:05:48.224Z,7172.00
2018-07-28T07:06:48.217Z,7500.00
2018-07-28T07:07:48.212Z,7924.00
2018-07-28T07:08:48.210Z,8456.00
2018-07-28T07:09:48.316Z,9084.00
2018-07-28T07:10:48.184Z,9764.00
2018-07-28T07:11:48.185Z,10456.00
2018-07-28T07:12:48.174Z,10916.00
2018-07-28T07:13:48.260Z,10744.00
2018-07-28T07:14:48.154Z,9596.00
2018-07-28T07:15:48.295Z,9064.00
2018-07-28T07:16:48.146Z,9652.00
2018-07-28T07:17:48.388Z,10512.00
2018-07-28T07:18:48.126Z,11496.00
2018-07-28T07:19:48.178Z,11536.00
2018-07-28T07:20:48.112Z,10168.00
2018-07-28T07:21:48.104Z,9224.00
2018-07-28T07:22:48.103Z,8684.00
2018-07-28T07:23:48.098Z,8184.00
2018-07-28T07:24:48.088Z,7588.00
2018-07-28T07:25:48.074Z,7032.00
2018-07-28T07:26:48.071Z,6648.00
2018-07-28T07:27:48.065Z,6344.00
2018-07-28T07:28:48.056Z,6144.00
2018-07-28T07:29:48.048Z,6040.00
2018-07-28T07:30:48.049Z,6132.00
2018-07-28T07:31:48.041Z,7200.00
2018-07-28T07:32:48.026Z,8072.00
2018-07-28T07:33:48.022Z,7460.00
2018-07-28T07:34:48.016Z,8132.00
2018-07-28T07:35:48.016Z,9568.00
2018-07-28T07:36:48.000Z,11424.00
2018-07-28T07:37:47.992Z,11256.00
2018-07-28T07:38:47.985Z,10820.00
2018-07-28T07:39:47.978Z,9368.00
2018-07-28T07:40:48.042Z,8360.00
2018-07-28T07:41:48.023Z,9196.00
2018-07-28T07:42:47.962Z,12140.00
2018-07-28T07:43:47.962Z,13112.00
2018-07-28T07:44:47.950Z,12840.00
2018-07-28T07:45:47.944Z,13408.00
2018-07-28T07:46:47.995Z,12616.00
2018-07-28T07:47:47.926Z,12680.00
2018-07-28T07:48:47.925Z,12212.00
2018-07-28T07:49:47.925Z,11972.00
2018-07-28T07:50:48.021Z,11068.00
2018-07-28T07:51:47.916Z,10464.00
2018-07-28T07:52:47.897Z,10412.00
2018-07-28T07:53:47.898Z,10740.00
2018-07-28T07:54:47.936Z,10976.00
2018-07-28T07:55:47.880Z,11812.00
2018-07-28T07:56:47.973Z,12256.00
2018-07-28T07:57:47.875Z,11936.00
2018-07-28T07:58:47.861Z,12864.00
2018-07-28T07:59:47.855Z,13264.00
2018-07-28T08:00:47.860Z,13148.00
2018-07-28T08:01:47.844Z,12148.00
2018-07-28T08:02:47.837Z,10852.00
2018-07-28T08:03:47.832Z,10764.00
2018-07-28T08:04:47.854Z,11088.00
2018-07-28T08:05:47.827Z,11280.00
2018-07-28T08:06:47.827Z,11916.00
2018-07-28T08:07:47.809Z,12056.00
2018-07-28T08:08:47.806Z,12420.00
2018-07-28T08:09:47.796Z,11480.00
2018-07-28T08:10:47.797Z,10384.00
2018-07-28T08:11:47.796Z,9648.00
2018-07-28T08:12:47.864Z,8964.00
2018-07-28T08:13:47.780Z,8876.00
2018-07-28T08:14:47.772Z,10640.00
2018-07-28T08:15:47.767Z,10284.00
2018-07-28T08:16:47.764Z,9192.00
2018-07-28T08:17:47.764Z,8312.00
2018-07-28T08:18:47.749Z,7304.00
2018-07-28T08:19:47.747Z,6860.00
2018-07-28T08:20:47.739Z,6720.00
2018-07-28T08:21:47.755Z,6836.00
2018-07-28T08:22:47.744Z,7108.00
2018-07-28T08:23:47.726Z,7332.00
2018-07-28T08:24:47.724Z,8760.00
2018-07-28T08:25:47.744Z,7244.00
2018-07-28T08:26:47.724Z,6920.00
2018-07-28T08:27:47.705Z,6540.00
2018-07-28T08:28:47.696Z,6040.00
2018-07-28T08:29:47.695Z,5672.00
2018-07-28T08:30:47.687Z,5280.00
2018-07-28T08:31:47.678Z,4812.00
2018-07-28T08:32:47.677Z,4488.00
2018-07-28T08:33:47.665Z,4204.00
2018-07-28T08:34:47.663Z,3988.00
2018-07-28T08:35:47.657Z,3852.00
2018-07-28T08:36:47.659Z,3792.00
2018-07-28T08:37:47.707Z,3788.00
2018-07-28T08:38:47.640Z,3804.00
2018-07-28T08:39:47.678Z,3880.00
2018-07-28T08:40:47.631Z,3900.00
2018-07-28T08:41:47.628Z,3828.00
2018-07-28T08:42:47.621Z,3664.00
2018-07-28T08:43:47.606Z,3436.00
2018-07-28T08:44:47.615Z,3172.00
2018-07-28T08:45:47.697Z,2952.00
2018-07-28T08:46:47.601Z,2768.00
2018-07-28T08:47:47.576Z,2640.00
2018-07-28T08:48:47.584Z,2584.00
2018-07-28T08:49:47.566Z,2564.00
2018-07-28T08:50:47.557Z,2524.00
2018-07-28T08:51:47.553Z,2508.00
2018-07-28T08:52:47.549Z,2488.00
2018-07-28T08:53:47.537Z,2428.00
2018-07-28T08:54:47.596Z,2328.00
2018-07-28T08:55:47.540Z,2244.00
2018-07-28T08:56:47.525Z,2180.00
2018-07-28T08:57:47.513Z,2136.00
2018-07-28T08:58:47.507Z,2092.00
2018-07-28T08:59:47.497Z,2040.00
2018-07-28T09:00:47.492Z,1996.00
2018-07-28T09:01:47.491Z,1948.00
2018-07-28T09:02:47.479Z,1896.00
2018-07-28T09:03:47.479Z,1868.00
2018-07-28T09:04:47.467Z,1844.00
2018-07-28T09:05:47.461Z,1800.00
2018-07-28T09:06:47.447Z,1740.00
2018-07-28T09:07:47.441Z,1696.00
2018-07-28T09:08:47.448Z,1672.00
2018-07-28T09:09:47.425Z,1676.00
2018-07-28T09:10:47.420Z,1696.00
2018-07-28T09:11:47.416Z,1748.00
2018-07-28T09:12:47.412Z,1824.00
2018-07-28T09:13:47.403Z,1924.00
2018-07-28T09:14:47.393Z,2036.00
2018-07-28T09:15:47.390Z,2144.00
2018-07-28T09:16:47.377Z,2240.00
2018-07-28T09:17:47.377Z,2388.00
2018-07-28T09:18:47.366Z,2548.00
2018-07-28T09:19:47.356Z,2640.00
2018-07-28T09:20:47.355Z,2736.00
2018-07-28T09:21:47.348Z,2928.00
2018-07-28T09:22:47.339Z,3172.00
2018-07-28T09:23:47.331Z,3460.00
2018-07-28T09:24:47.325Z,3264.00
2018-07-28T09:25:47.317Z,3064.00
2018-07-28T09:26:47.308Z,2884.00
2018-07-28T09:27:47.301Z,2720.00
2018-07-28T09:28:47.297Z,2564.00
2018-07-28T09:29:47.288Z,2444.00
2018-07-28T09:30:47.288Z,2376.00
2018-07-28T09:31:47.276Z,2372.00
2018-07-28T09:32:47.264Z,2396.00
2018-07-28T09:33:47.256Z,2460.00
2018-07-28T09:34:47.260Z,2572.00
2018-07-28T09:35:47.245Z,2792.00
2018-07-28T09:36:47.270Z,3060.00
2018-07-28T09:37:47.312Z,3308.00
2018-07-28T09:38:47.225Z,3248.00
2018-07-28T09:39:47.219Z,3044.00
2018-07-28T09:40:47.211Z,2944.00
2018-07-28T09:41:47.214Z,2892.00
2018-07-28T09:42:47.204Z,2728.00
2018-07-28T09:43:47.188Z,2540.00
2018-07-28T09:44:47.180Z,2332.00
2018-07-28T09:45:47.282Z,2124.00
2018-07-28T09:46:47.164Z,1968.00
2018-07-28T09:47:47.268Z,1860.00
2018-07-28T09:48:47.154Z,1792.00
2018-07-28T09:49:47.185Z,1760.00
2018-07-28T09:50:47.137Z,1764.00
2018-07-28T09:51:47.182Z,1788.00
2018-07-28T09:52:47.128Z,1772.00
2018-07-28T09:53:47.117Z,1740.00
2018-07-28T09:54:47.114Z,1800.00
2018-07-28T09:55:47.105Z,1912.00
2018-07-28T09:56:47.097Z,1940.00
2018-07-28T09:57:47.090Z,1956.00
2018-07-28T09:58:47.090Z,1912.00
2018-07-28T09:59:47.074Z,1812.00
2018-07-28T10:00:47.073Z,1744.00
2018-07-28T10:01:47.059Z,1668.00
2018-07-28T10:02:47.065Z,1652.00
2018-07-28T10:03:47.064Z,1692.00
2018-07-28T10:04:47.045Z,1664.00
2018-07-28T10:05:47.037Z,1676.00
2018-07-28T10:06:47.043Z,1672.00
2018-07-28T10:07:47.018Z,1664.00
2018-07-28T10:08:47.008Z,1652.00
2018-07-28T10:09:46.997Z,1628.00
2018-07-28T10:10:46.993Z,1588.00
2018-07-28T10:11:46.983Z,1540.00
2018-07-28T10:12:46.977Z,1500.00
2018-07-28T10:13:46.968Z,1488.00
2018-07-28T10:14:46.963Z,1496.00
2018-07-28T10:15:46.956Z,1496.00
2018-07-28T10:16:46.948Z,1480.00
2018-07-28T10:17:46.937Z,1452.00
2018-07-28T10:18:46.936Z,1432.00
2018-07-28T10:19:46.929Z,1412.00
2018-07-28T10:20:46.914Z,1376.00
2018-07-28T10:21:46.905Z,1352.00
2018-07-28T10:22:46.903Z,1348.00
2018-07-28T10:23:46.891Z,1348.00
2018-07-28T10:24:46.994Z,1344.00
2018-07-28T10:25:46.907Z,1336.00
2018-07-28T10:26:46.918Z,1316.00
2018-07-28T10:27:46.860Z,1268.00
2018-07-28T10:28:46.847Z,1264.00
2018-07-28T10:29:46.843Z,1356.00
2018-07-28T10:30:46.837Z,1516.00
2018-07-28T10:31:46.827Z,1664.00
2018-07-28T10:32:46.818Z,1732.00
2018-07-28T10:33:46.813Z,1788.00
2018-07-28T10:34:46.825Z,1852.00
2018-07-28T10:35:46.790Z,1976.00
2018-07-28T10:36:46.943Z,2188.00
2018-07-28T10:37:46.778Z,2424.00
2018-07-28T10:38:46.768Z,2660.00
2018-07-28T10:39:46.757Z,2824.00
2018-07-28T10:40:46.765Z,2940.00
2018-07-28T10:41:46.738Z,3012.00
2018-07-28T10:42:46.738Z,3044.00
2018-07-28T10:43:46.724Z,3088.00
2018-07-28T10:44:46.718Z,3168.00
2018-07-28T10:45:46.708Z,3276.00
2018-07-28T10:46:46.704Z,3380.00
2018-07-28T10:47:46.690Z,3496.00
2018-07-28T10:48:46.698Z,3652.00
2018-07-28T10:49:46.680Z,3820.00
2018-07-28T10:50:46.670Z,3960.00
2018-07-28T10:51:46.665Z,4048.00
2018-07-28T10:52:46.661Z,4156.00
2018-07-28T10:53:46.643Z,4152.00
2018-07-28T10:54:46.638Z,4168.00
2018-07-28T10:55:46.624Z,4184.00
2018-07-28T10:56:46.622Z,4136.00
2018-07-28T10:57:46.628Z,4148.00
2018-07-28T10:58:46.603Z,4212.00
2018-07-28T10:59:46.598Z,4236.00
2018-07-28T11:00:46.614Z,4248.00
2018-07-28T11:01:46.585Z,4244.00
2018-07-28T11:02:46.580Z,4256.00
2018-07-28T11:03:46.561Z,4324.00
2018-07-28T11:04:46.561Z,4368.00
2018-07-28T11:05:46.548Z,4376.00
2018-07-28T11:06:46.542Z,4368.00
2018-07-28T11:07:46.533Z,4384.00
2018-07-28T11:08:46.523Z,4412.00
2018-07-28T11:09:46.514Z,4484.00
2018-07-28T11:10:46.507Z,4588.00
2018-07-28T11:11:46.501Z,4784.00
2018-07-28T11:12:46.494Z,5064.00
2018-07-28T11:13:46.495Z,5356.00
2018-07-28T11:14:46.475Z,5680.00
2018-07-28T11:15:46.473Z,6032.00
2018-07-28T11:16:46.458Z,6408.00
2018-07-28T11:17:46.451Z,6820.00
2018-07-28T11:18:46.492Z,7104.00
2018-07-28T11:19:46.438Z,7340.00
2018-07-28T11:20:46.429Z,7312.00
2018-07-28T11:21:46.418Z,7344.00
2018-07-28T11:22:46.417Z,7212.00
2018-07-28T11:23:46.408Z,7316.00
2018-07-28T11:24:46.412Z,7560.00
2018-07-28T11:25:46.394Z,8336.00
2018-07-28T11:26:46.383Z,7412.00
2018-07-28T11:27:46.375Z,7484.00
2018-07-28T11:28:46.375Z,7448.00
2018-07-28T11:29:46.362Z,7940.00
2018-07-28T11:30:46.365Z,6908.00
2018-07-28T11:31:46.406Z,6004.00
2018-07-28T11:32:46.346Z,5476.00
2018-07-28T11:33:46.336Z,5176.00
2018-07-28T11:34:46.335Z,5080.00
2018-07-28T11:35:46.324Z,5352.00
2018-07-28T11:36:46.318Z,5504.00
2018-07-28T11:37:46.323Z,5400.00
2018-07-28T11:38:46.304Z,5240.00
2018-07-28T11:39:46.304Z,5064.00
2018-07-28T11:40:46.290Z,4924.00
2018-07-28T11:41:46.286Z,4556.00
2018-07-28T11:42:46.279Z,4172.00
2018-07-28T11:43:46.276Z,3864.00
2018-07-28T11:44:46.320Z,3800.00
2018-07-28T11:45:46.296Z,3904.00
2018-07-28T11:46:46.409Z,4068.00
2018-07-28T11:47:46.253Z,4108.00
2018-07-28T11:48:46.353Z,4304.00
2018-07-28T11:49:46.236Z,4880.00
2018-07-28T11:50:46.314Z,5676.00
2018-07-28T11:51:46.227Z,6608.00
2018-07-28T11:52:46.315Z,7820.00
2018-07-28T11:53:46.207Z,7432.00
2018-07-28T11:54:46.204Z,11720.00
2018-07-28T11:55:46.199Z,14272.00
2018-07-28T11:56:46.236Z,13164.00
2018-07-28T11:57:46.182Z,12608.00
2018-07-28T11:58:46.176Z,14176.00
2018-07-28T11:59:46.169Z,13908.00
2018-07-28T12:00:46.171Z,9764.00
2018-07-28T12:01:46.212Z,9464.00
2018-07-28T12:02:46.151Z,11344.00
2018-07-28T12:03:46.158Z,12732.00
2018-07-28T12:04:46.137Z,11640.00
2018-07-28T12:05:46.132Z,9156.00
2018-07-28T12:06:46.137Z,10744.00
2018-07-28T12:07:46.128Z,12804.00
2018-07-28T12:08:46.129Z,12352.00
2018-07-28T12:09:46.121Z,12572.00
2018-07-28T12:10:46.106Z,13592.00
2018-07-28T12:11:46.106Z,8464.00
2018-07-28T12:12:46.118Z,10200.00
2018-07-28T12:13:46.097Z,9972.00
2018-07-28T12:14:46.097Z,10460.00
2018-07-28T12:15:46.090Z,9184.00
2018-07-28T12:16:46.079Z,7292.00
2018-07-28T12:17:46.083Z,6764.00
2018-07-28T12:18:46.077Z,6508.00
2018-07-28T12:19:46.072Z,6456.00
2018-07-28T12:20:46.069Z,6520.00
2018-07-28T12:21:46.060Z,6588.00
2018-07-28T12:22:46.056Z,6888.00
2018-07-28T12:23:46.145Z,9744.00
2018-07-28T12:24:46.045Z,13792.00
2018-07-28T12:25:46.037Z,13532.00
2018-07-28T12:26:46.031Z,12736.00